M I D A S
Marine Information and Data Acquisition System
Tripno 1069 of the Zeeleeuw from 2006-04-10 07:21:34 to 2006-04-10 13:24:46
Back to CruiseResearch ActivitiesStationsMapUnderway DataData graphs

EquipmentUnitsComment
TimeDGPSUTC
LatitudeDGPSDM.mWGS84
LongitudeDGPSDM.mWGS84
TemperatureSBE03/SBE38deg celciusITS90
ConductivitySBE21S/mITS90
SalinitySBE21 Practical Salinity Units
ChlorophylAChelsea fluorimeterg/lCalibrated in Aceton
Missing or incorrect values are displayed as -999
Sea surface data collected by the RV Zeeleeuw from 2006-04-10 07:21:20 to 2006-04-10 13:38:36
Time Latitude Longitude Temperature Conductivity Salinity ChlorophylA
2006-04-10 07:22:25 51°13.614 2°56.039 -999 3.154493 29.438936 11.050751
2006-04-10 07:23:25 51°13.64 2°55.93 -999 3.162564 29.567957 10.646238
2006-04-10 07:24:25 51°13.678 2°55.831 -999 3.05942 28.490591 10.679947
2006-04-10 07:25:25 51°13.716 2°55.743 -999 3.0468 28.373972 11.893486
2006-04-10 07:26:25 51°13.72 2°55.747 -999 2.989188 27.782157 12.095742
2006-04-10 07:27:25 51°13.713 2°55.721 -999 2.824664 26.068028 11.792358
2006-04-10 07:28:25 51°13.724 2°55.743 -999 2.98081 27.686237 12.500255
2006-04-10 07:29:25 51°13.706 2°55.731 -999 2.920207 27.055439 12.601383
2006-04-10 07:30:25 51°13.751 2°55.698 -999 2.930548 27.172328 12.567674
2006-04-10 07:31:25 51°13.837 2°55.623 -999 2.954541 27.415005 14.320563
2006-04-10 07:32:24 51°13.927 2°55.557 -999 3.004288 27.942166 13.444118
2006-04-10 07:33:25 51°14.031 2°55.481 -999 3.086213 28.808737 12.500255
2006-04-10 07:34:25 51°14.168 2°55.378 -999 3.076799 28.755473 12.196871
2006-04-10 07:35:25 51°14.288 2°55.212 -999 3.139285 29.40018 11.994614
2006-04-10 07:36:24 51°14.398 2°55.012 -999 3.208196 30.202546 12.668802
2006-04-10 07:37:24 51°14.537 2°54.83 -999 3.2677 30.971458 13.511537
2006-04-10 07:38:25 51°14.706 2°54.641 -999 3.278568 31.168604 14.050888
2006-04-10 07:39:24 51°14.872 2°54.46 -999 3.287572 31.282305 13.882341
2006-04-10 07:40:25 51°15.042 2°54.27 -999 3.274532 31.141592 14.4554
2006-04-10 07:41:24 51°15.208 2°54.09 -999 3.29906 31.370576 13.781212
2006-04-10 07:42:25 51°15.384 2°53.909 -999 3.337147 31.709213 13.241862
2006-04-10 07:43:24 51°15.547 2°53.723 -999 3.359091 31.948022 12.432836
2006-04-10 07:44:24 51°15.718 2°53.552 -999 3.285709 31.234015 13.410409
2006-04-10 07:45:25 51°15.897 2°53.385 -999 3.278361 31.152554 14.421691
2006-04-10 07:46:24 51°16.072 2°53.231 -999 3.307029 31.431533 13.275571
2006-04-10 07:47:25 51°16.249 2°53.071 -999 3.343254 31.792663 13.140734
2006-04-10 07:48:25 51°16.425 2°52.922 -999 3.331248 31.698412 13.949759
2006-04-10 07:49:25 51°16.605 2°52.785 -999 3.343876 31.815847 14.590238
2006-04-10 07:50:24 51°16.788 2°52.674 -999 3.348533 31.861661 15.63523
2006-04-10 07:51:24 51°16.979 2°52.609 -999 3.345946 31.851854 16.107161
2006-04-10 07:52:25 51°17.174 2°52.556 -999 3.335596 31.799211 17.725212
2006-04-10 07:53:25 51°17.365 2°52.514 -999 3.332802 31.810548 18.365691
2006-04-10 07:54:25 51°17.557 2°52.478 -999 3.326903 31.814964 16.983606
2006-04-10 07:55:24 51°17.75 2°52.466 -999 3.321107 31.788662 15.197007
2006-04-10 07:56:25 51°17.946 2°52.475 -999 3.329077 31.872407 14.792494
2006-04-10 07:57:24 51°18.119 2°52.589 -999 3.334873 31.935625 14.556529
2006-04-10 07:58:25 51°18.258 2°52.812 -999 3.333735 31.935319 14.4554
2006-04-10 07:59:25 51°18.342 2°53.094 -999 3.334459 31.953967 14.354272
2006-04-10 08:00:24 51°18.411 2°53.382 -999 3.327732 31.894267 14.387982
2006-04-10 08:01:24 51°18.493 2°53.669 -999 3.316657 31.776612 14.320563
2006-04-10 08:02:24 51°18.575 2°53.957 -999 3.311379 31.726415 14.4554
2006-04-10 08:03:25 51°18.659 2°54.244 -999 3.304444 31.668658 14.522819
2006-04-10 08:04:24 51°18.742 2°54.523 -999 3.290266 31.541409 14.590238
2006-04-10 08:05:24 51°18.822 2°54.808 -999 3.278054 31.423333 14.556529
2006-04-10 08:06:24 51°18.898 2°55.095 -999 3.26874 31.331877 14.758785
2006-04-10 08:07:25 51°18.974 2°55.388 -999 3.264186 31.288489 15.129589
2006-04-10 08:08:24 51°19.049 2°55.667 -999 3.258391 31.231912 15.230717
2006-04-10 08:09:24 51°19.128 2°55.949 -999 3.250422 31.153087 15.331845
2006-04-10 08:10:25 51°19.206 2°56.235 -999 3.245869 31.108868 15.432973
2006-04-10 08:11:24 51°19.281 2°56.514 -999 3.240902 31.056146 15.331845
2006-04-10 08:12:25 51°19.358 2°56.803 -999 3.232934 30.976515 15.432973
2006-04-10 08:13:24 51°19.434 2°57.084 -999 3.227242 30.919407 15.871195
2006-04-10 08:14:24 51°19.51 2°57.37 -999 3.219999 30.845022 16.039742
2006-04-10 08:15:25 51°19.591 2°57.662 -999 3.219378 30.838437 16.17458
2006-04-10 08:16:25 51°19.666 2°57.951 -999 3.21141 30.74988 15.668939
2006-04-10 08:17:24 51°19.741 2°58.232 -999 3.207374 30.703855 15.399264
2006-04-10 08:18:25 51°19.82 2°58.521 -999 3.193716 30.553498 15.399264
2006-04-10 08:19:25 51°19.894 2°58.809 -999 3.203649 30.661949 15.500392
2006-04-10 08:20:24 51°19.968 2°59.093 -999 3.202718 30.64965 15.500392
2006-04-10 08:21:24 51°20.044 2°59.383 -999 3.201994 30.649273 15.60152
2006-04-10 08:22:24 51°20.122 2°59.674 -999 3.196923 30.589083 15.770067
2006-04-10 08:23:24 51°20.199 2°59.969 -999 3.200442 30.620677 16.376836
2006-04-10 08:24:25 51°20.275 3°0.27 -999 3.19651 30.591173 16.241999
2006-04-10 08:25:25 51°20.352 3°0.569 -999 3.192785 30.557377 16.073452
2006-04-10 08:26:25 51°20.429 3°0.866 -999 3.191129 30.540648 16.208289
2006-04-10 08:27:24 51°20.507 3°1.16 -999 3.186369 30.490237 16.275708
2006-04-10 08:28:25 51°20.586 3°1.465 -999 3.184403 30.467806 16.107161
2006-04-10 08:29:24 51°20.666 3°1.76 -999 3.181299 30.430109 16.039742
2006-04-10 08:30:24 51°20.743 3°2.061 -999 3.185335 30.472022 15.904905
2006-04-10 08:31:24 51°20.822 3°2.358 -999 3.188025 30.506963 15.770067
2006-04-10 08:32:25 51°20.904 3°2.665 -999 3.179851 30.422019 16.275708
2006-04-10 08:33:24 51°20.982 3°2.961 -999 3.181196 30.445123 16.376836
2006-04-10 08:34:24 51°21.064 3°3.262 -999 3.18192 30.457631 15.904905
2006-04-10 08:35:24 51°21.146 3°3.566 -999 3.180886 30.454734 16.140871
2006-04-10 08:36:25 51°21.232 3°3.875 -999 3.17892 30.438742 16.241999
2006-04-10 08:37:25 51°21.314 3°4.178 -999 3.182231 30.47625 16.376836
2006-04-10 08:38:24 51°21.385 3°4.478 -999 3.17892 30.437935 16.006033
2006-04-10 08:39:24 51°21.448 3°4.791 -999 3.173643 30.386053 15.972324
2006-04-10 08:40:24 51°21.511 3°5.107 -999 3.169918 30.347397 16.006033
2006-04-10 08:41:24 51°21.576 3°5.422 -999 3.166711 30.315832 16.140871
2006-04-10 08:42:25 51°21.642 3°5.739 -999 3.156157 30.204073 16.208289
2006-04-10 08:43:24 51°21.705 3°6.045 -999 3.146535 30.096644 16.17458
2006-04-10 08:44:24 51°21.762 3°6.362 -999 3.130499 29.928621 16.241999
2006-04-10 08:45:24 51°21.815 3°6.683 -999 3.124395 29.871212 16.343127
2006-04-10 08:46:25 51°21.86 3°7.014 -999 3.126981 29.903313 16.309418
2006-04-10 08:47:24 51°21.903 3°7.333 -999 3.116222 29.787186 16.006033
2006-04-10 08:48:25 51°21.94 3°7.667 -999 3.102876 29.648531 15.871195
2006-04-10 08:49:25 51°21.973 3°7.997 -999 3.101531 29.635895 15.871195
2006-04-10 08:50:24 51°22.007 3°8.322 -999 3.096462 29.576084 15.871195
2006-04-10 08:51:25 51°22.042 3°8.658 -999 3.09429 29.548451 16.006033
2006-04-10 08:52:25 51°22.077 3°8.989 -999 3.091186 29.50944 16.073452
2006-04-10 08:53:24 51°22.113 3°9.318 -999 3.093152 29.5294 16.208289
2006-04-10 08:54:24 51°22.152 3°9.654 -999 3.090565 29.506015 16.073452
2006-04-10 08:55:25 51°22.192 3°9.996 -999 3.089014 29.494327 15.770067
2006-04-10 08:56:24 51°22.23 3°10.328 -999 3.092221 29.531304 15.736358
2006-04-10 08:57:25 51°22.281 3°10.673 -999 3.090565 29.506797 15.668939
2006-04-10 08:58:25 51°22.327 3°11.017 -999 3.091393 29.518658 15.770067
2006-04-10 08:59:24 51°22.373 3°11.358 -999 3.085186 29.457055 15.770067
2006-04-10 09:00:25 51°22.418 3°11.713 -999 3.080945 29.410741 15.803777
2006-04-10 09:01:25 51°22.463 3°12.064 -999 3.078979 29.389226 15.837486
2006-04-10 09:02:25 51°22.506 3°12.416 -999 3.074945 29.345116 15.837486
2006-04-10 09:03:24 51°22.55 3°12.762 -999 3.072255 29.315198 15.837486
2006-04-10 09:04:25 51°22.591 3°13.075 -999 3.066566 29.253662 15.837486
2006-04-10 09:05:25 51°22.614 3°13.206 -999 3.060566 29.202798 15.770067
2006-04-10 09:06:25 51°22.601 3°13.225 -999 3.060152 29.188383 15.803777
2006-04-10 09:07:25 51°22.587 3°13.243 -999 3.059325 29.183526 15.837486
2006-04-10 09:08:25 51°22.573 3°13.266 -999 3.058807 29.17962 15.837486
2006-04-10 09:09:25 51°22.558 3°13.289 -999 3.059945 29.191614 15.837486
2006-04-10 09:10:25 51°22.544 3°13.314 -999 3.062531 29.200314 15.770067
2006-04-10 09:11:25 51°22.53 3°13.341 -999 3.063462 29.196212 15.702648
2006-04-10 09:12:25 51°22.514 3°13.377 -999 3.062531 29.187181 15.668939
2006-04-10 09:13:25 51°22.527 3°13.498 -999 3.063565 29.194985 15.702648
2006-04-10 09:14:25 51°22.622 3°13.49 -999 3.060256 29.183291 15.837486
2006-04-10 09:15:25 51°22.678 3°13.265 -999 3.060152 29.169072 15.837486
2006-04-10 09:16:25 51°22.739 3°12.974 -999 3.059842 29.176614 15.770067
2006-04-10 09:17:25 51°22.797 3°12.677 -999 3.066669 29.24546 15.803777
2006-04-10 09:18:25 51°22.854 3°12.376 -999 3.070083 29.287639 15.871195
2006-04-10 09:19:24 51°22.91 3°12.078 -999 3.070807 29.29217 15.702648
2006-04-10 09:20:25 51°22.967 3°11.767 -999 3.073082 29.289798 15.904905
2006-04-10 09:21:25 51°23.027 3°11.462 -999 3.0676 29.222783 15.803777
2006-04-10 09:22:25 51°23.092 3°11.158 -999 3.062117 29.168162 15.567811
2006-04-10 09:23:25 51°23.154 3°10.856 -999 3.07753 29.334327 15.399264
2006-04-10 09:24:25 51°23.217 3°10.566 -999 3.108876 29.663201 15.770067
2006-04-10 09:25:25 51°23.285 3°10.274 -999 3.127084 29.881447 15.972324
2006-04-10 09:26:24 51°23.355 3°9.992 -999 3.12905 29.896679 15.60152
2006-04-10 09:27:25 51°23.427 3°9.7 -999 3.133292 29.935166 15.904905
2006-04-10 09:28:24 51°23.495 3°9.421 -999 3.135154 29.949296 15.837486
2006-04-10 09:29:25 51°23.568 3°9.131 -999 3.142293 30.027909 15.736358
2006-04-10 09:30:25 51°23.638 3°8.848 -999 3.159985 30.206198 15.736358
2006-04-10 09:31:24 51°23.701 3°8.564 -999 3.18699 30.511345 15.938614
2006-04-10 09:32:25 51°23.759 3°8.269 -999 3.221242 30.99191 16.107161
2006-04-10 09:33:25 51°23.813 3°7.975 -999 3.225692 31.064099 16.17458
2006-04-10 09:34:25 51°23.855 3°7.677 -999 3.225175 31.071814 16.241999
2006-04-10 09:35:25 51°23.894 3°7.377 -999 3.223312 31.056905 16.376836
2006-04-10 09:36:25 51°23.936 3°7.078 -999 3.235316 31.189163 16.410546
2006-04-10 09:37:25 51°23.978 3°6.777 -999 3.2378 31.226494 16.444255
2006-04-10 09:38:25 51°24.021 3°6.474 -999 3.239973 31.254705 16.410546
2006-04-10 09:39:25 51°24.066 3°6.174 -999 3.24225 31.279864 16.477965
2006-04-10 09:40:24 51°24.12 3°5.883 -999 3.246596 31.344693 16.848768
2006-04-10 09:41:25 51°24.182 3°5.586 -999 3.25115 31.406795 17.017315
2006-04-10 09:42:24 51°24.244 3°5.298 -999 3.253944 31.457684 17.017315
2006-04-10 09:43:25 51°24.307 3°4.999 -999 3.254048 31.468876 16.781349
2006-04-10 09:44:25 51°24.369 3°4.704 -999 3.256221 31.508995 16.848768
2006-04-10 09:45:25 51°24.432 3°4.409 -999 3.257463 31.520623 16.646512
2006-04-10 09:46:25 51°24.497 3°4.115 -999 3.262741 31.592409 16.949896
2006-04-10 09:47:25 51°24.564 3°3.825 -999 3.261085 31.565361 16.579093
2006-04-10 09:48:25 51°24.633 3°3.534 -999 3.260981 31.548226 16.511674
2006-04-10 09:49:24 51°24.684 3°3.236 -999 3.262327 31.557587 16.545383
2006-04-10 09:50:25 51°24.722 3°2.916 -999 3.267294 31.586361 16.410546
2006-04-10 09:51:24 51°24.737 3°2.606 -999 3.27278 31.711151 16.848768
2006-04-10 09:52:25 51°24.744 3°2.283 -999 3.274229 31.730103 16.74764
2006-04-10 09:53:24 51°24.753 3°1.968 -999 3.275988 31.746448 16.71393
2006-04-10 09:54:24 51°24.766 3°1.651 -999 3.275781 31.756971 16.680221
2006-04-10 09:55:25 51°24.78 3°1.318 -999 3.273297 31.727742 16.680221
2006-04-10 09:56:25 51°24.795 3°0.986 -999 3.275056 31.734748 16.511674
2006-04-10 09:57:25 51°24.808 3°0.653 -999 3.280231 31.783514 16.545383
2006-04-10 09:58:25 51°24.822 3°0.32 -999 3.287683 31.875477 16.545383
2006-04-10 09:59:25 51°24.835 2°59.982 -999 3.294203 31.937858 16.545383
2006-04-10 10:00:25 51°24.845 2°59.637 -999 3.308382 32.128963 16.17458
2006-04-10 10:01:25 51°24.851 2°59.295 -999 3.310659 32.158649 15.60152
2006-04-10 10:02:25 51°24.86 2°58.955 -999 3.311694 32.183593 15.500392
2006-04-10 10:03:25 51°24.875 2°58.62 -999 3.312005 32.168829 15.567811
2006-04-10 10:04:25 51°24.894 2°58.286 -999 3.312005 32.176588 15.668939
2006-04-10 10:05:24 51°24.922 2°57.955 -999 3.315834 32.202305 15.668939
2006-04-10 10:06:25 51°24.948 2°57.616 -999 3.316973 32.210251 15.60152
2006-04-10 10:07:25 51°24.972 2°57.283 -999 3.31573 32.178782 15.60152
2006-04-10 10:08:25 51°24.998 2°56.949 -999 3.314488 32.171446 15.668939
2006-04-10 10:09:25 51°25.031 2°56.612 -999 3.30952 32.108535 15.702648
2006-04-10 10:10:25 51°25.066 2°56.272 -999 3.307968 32.073813 15.702648
2006-04-10 10:11:25 51°25.099 2°55.933 -999 3.308485 32.081092 15.904905
2006-04-10 10:12:25 51°25.126 2°55.598 -999 3.356823 32.70716 16.140871
2006-04-10 10:13:25 51°25.156 2°55.266 -999 3.367071 32.85147 15.972324
2006-04-10 10:14:25 51°25.184 2°54.933 -999 3.369866 32.880844 16.006033
2006-04-10 10:15:25 51°25.213 2°54.603 -999 3.369866 32.869359 15.770067
2006-04-10 10:16:25 51°25.246 2°54.268 -999 3.371315 32.877094 15.702648
2006-04-10 10:17:25 51°25.278 2°53.929 -999 3.365311 32.786601 15.534101
2006-04-10 10:18:25 51°25.309 2°53.591 -999 3.365724 32.76382 15.331845
2006-04-10 10:19:25 51°25.338 2°53.255 -999 3.366035 32.76981 15.365554
2006-04-10 10:20:25 51°25.37 2°52.916 -999 3.364793 32.739714 15.230717
2006-04-10 10:21:25 51°25.403 2°52.575 -999 3.361998 32.689398 15.197007
2006-04-10 10:22:25 51°25.436 2°52.237 -999 3.36531 32.715494 15.230717
2006-04-10 10:23:24 51°25.479 2°51.902 -999 3.364275 32.711336 15.298136
2006-04-10 10:24:25 51°25.533 2°51.559 -999 3.361584 32.674431 15.264426
2006-04-10 10:25:25 51°25.584 2°51.227 -999 3.366552 32.707001 15.230717
2006-04-10 10:26:25 51°25.632 2°50.893 -999 3.366138 32.695541 15.197007
2006-04-10 10:27:25 51°25.682 2°50.56 -999 3.370071 32.743187 15.163298
2006-04-10 10:28:25 51°25.732 2°50.224 -999 3.360445 32.642929 15.163298
2006-04-10 10:29:25 51°25.784 2°49.888 -999 3.358892 32.618344 15.129589
2006-04-10 10:30:25 51°25.833 2°49.55 -999 3.353406 32.546194 15.129589
2006-04-10 10:31:25 51°25.882 2°49.211 -999 3.360134 32.638709 15.095879
2006-04-10 10:32:25 51°25.935 2°48.874 -999 3.370071 32.758085 15.129589
2006-04-10 10:33:25 51°25.973 2°48.58 -999 3.378042 32.857254 15.163298
2006-04-10 10:34:25 51°26 2°48.45 -999 3.381665 32.896362 15.163298
2006-04-10 10:35:25 51°26.003 2°48.456 -999 3.38063 32.886068 15.197007
2006-04-10 10:36:25 51°26.006 2°48.46 -999 3.383425 32.917122 15.365554
2006-04-10 10:37:25 51°26.008 2°48.464 -999 3.384253 32.919892 15.466683
2006-04-10 10:38:25 51°26.01 2°48.465 -999 3.382597 32.896729 15.500392
2006-04-10 10:39:25 51°26.014 2°48.467 -999 3.382286 32.889856 15.500392
2006-04-10 10:40:25 51°26.019 2°48.47 -999 3.382597 32.889686 15.500392
2006-04-10 10:41:25 51°26.014 2°48.429 -999 3.387358 32.937544 15.500392
2006-04-10 10:42:25 51°25.934 2°48.362 -999 3.385495 32.917438 15.466683
2006-04-10 10:43:25 51°25.783 2°48.163 -999 3.384977 32.903929 15.365554
2006-04-10 10:44:25 51°25.625 2°47.958 -999 3.3886 32.937728 15.365554
2006-04-10 10:45:25 51°25.462 2°47.759 -999 3.39388 32.977044 15.331845
2006-04-10 10:46:25 51°25.299 2°47.55 -999 3.403196 33.072234 15.466683
2006-04-10 10:47:25 51°25.147 2°47.329 -999 3.418932 33.236702 15.567811
2006-04-10 10:48:25 51°24.991 2°47.12 -999 3.425247 33.320009 15.668939
2006-04-10 10:49:25 51°24.838 2°46.901 -999 3.424418 33.283474 15.736358
2006-04-10 10:50:25 51°24.68 2°46.693 -999 3.421933 33.214074 15.63523
2006-04-10 10:51:25 51°24.524 2°46.485 -999 3.421933 33.209644 15.770067
2006-04-10 10:52:25 51°24.377 2°46.254 -999 3.420897 33.165759 15.702648
2006-04-10 10:53:25 51°24.233 2°46.023 -999 3.420587 33.156233 15.803777
2006-04-10 10:54:25 51°24.091 2°45.798 -999 3.412822 33.058603 15.770067
2006-04-10 10:55:25 51°23.945 2°45.569 -999 3.422243 33.144923 15.803777
2006-04-10 10:56:25 51°23.791 2°45.359 -999 3.419551 33.118626 15.904905
2006-04-10 10:57:25 51°23.639 2°45.146 -999 3.422864 33.156896 16.039742
2006-04-10 10:58:25 51°23.48 2°44.945 -999 3.428662 33.228099 16.107161
2006-04-10 10:59:25 51°23.318 2°44.742 -999 3.43684 33.320559 16.343127
2006-04-10 11:00:25 51°23.157 2°44.546 -999 3.442017 33.383407 16.444255
2006-04-10 11:01:25 51°22.994 2°44.346 -999 3.450403 33.479992 16.579093
2006-04-10 11:02:25 51°22.831 2°44.152 -999 3.455994 33.55724 16.781349
2006-04-10 11:03:25 51°22.669 2°43.955 -999 3.459203 33.602609 16.949896
2006-04-10 11:04:25 51°22.505 2°43.76 -999 3.459411 33.612911 17.017315
2006-04-10 11:05:25 51°22.343 2°43.553 -999 3.45941 33.596779 17.017315
2006-04-10 11:06:25 51°22.174 2°43.361 -999 3.461792 33.625159 17.084734
2006-04-10 11:07:25 51°22.007 2°43.162 -999 3.46966 33.711874 17.219571
2006-04-10 11:08:25 51°21.84 2°42.966 -999 3.477943 33.809415 17.421828
2006-04-10 11:09:25 51°21.673 2°42.779 -999 3.483845 33.860522 17.455537
2006-04-10 11:10:25 51°21.514 2°42.572 -999 3.487676 33.891958 17.556665
2006-04-10 11:11:25 51°21.351 2°42.378 -999 3.49482 33.956445 17.421828
2006-04-10 11:12:25 51°21.188 2°42.178 -999 3.491196 33.902863 17.590375
2006-04-10 11:13:25 51°21.019 2°41.993 -999 3.494716 33.913759 17.3207
2006-04-10 11:14:25 51°20.859 2°41.792 -999 3.497097 33.923194 17.3207
2006-04-10 11:15:25 51°20.703 2°41.581 -999 3.499375 33.934215 17.455537
2006-04-10 11:16:25 51°20.543 2°41.372 -999 3.502481 33.954154 17.455537
2006-04-10 11:17:25 51°20.388 2°41.168 -999 3.506208 33.973554 17.590375
2006-04-10 11:18:25 51°20.226 2°40.964 -999 3.508072 33.971074 17.624084
2006-04-10 11:19:25 51°20.073 2°40.753 -999 3.512213 33.988598 17.758922
2006-04-10 11:20:25 51°19.915 2°40.55 -999 3.514802 33.998416 17.961178
2006-04-10 11:21:25 51°19.758 2°40.35 -999 3.522464 34.062764 18.062306
2006-04-10 11:22:25 51°19.605 2°40.147 -999 3.517183 33.972713 17.893759
2006-04-10 11:23:25 51°19.452 2°39.928 -999 3.517597 33.967276 17.826341
2006-04-10 11:24:25 51°19.299 2°39.709 -999 3.52267 33.975919 17.725212
2006-04-10 11:25:25 51°19.142 2°39.499 -999 3.518942 33.937748 17.994888
2006-04-10 11:26:25 51°18.982 2°39.293 -999 3.5177 33.928012 18.197144
2006-04-10 11:27:25 51°18.823 2°39.09 -999 3.520185 33.93673 17.758922
2006-04-10 11:28:25 51°18.665 2°38.88 -999 3.509829 33.759858 17.3207
2006-04-10 11:29:25 51°18.505 2°38.689 -999 3.50869 33.72104 17.219571
2006-04-10 11:30:25 51°18.345 2°38.501 -999 3.512418 33.746649 17.185862
2006-04-10 11:31:25 51°18.177 2°38.323 -999 3.519666 33.807165 17.118443
2006-04-10 11:32:25 51°18.005 2°38.147 -999 3.524532 33.85201 17.152153
2006-04-10 11:33:25 51°17.834 2°37.97 -999 3.533955 33.947282 17.185862
2006-04-10 11:34:25 51°17.661 2°37.803 -999 3.537165 33.97978 17.185862
2006-04-10 11:35:25 51°17.487 2°37.626 -999 3.541204 34.028281 17.253281
2006-04-10 11:36:25 51°17.316 2°37.453 -999 3.545863 34.073594 17.354409
2006-04-10 11:37:25 51°17.146 2°37.278 -999 3.550627 34.140647 17.388118
2006-04-10 11:38:25 51°16.975 2°37.105 -999 3.554562 34.189918 17.455537
2006-04-10 11:39:25 51°16.798 2°36.945 -999 3.558705 34.250444 17.421828
2006-04-10 11:40:25 51°16.665 2°36.875 -999 3.565125 34.3255 17.388118
2006-04-10 11:41:25 51°16.614 2°36.837 -999 3.5644 34.323158 17.455537
2006-04-10 11:42:25 51°16.598 2°36.81 -999 3.567714 34.350513 17.522956
2006-04-10 11:43:25 51°16.596 2°36.791 -999 3.568025 34.343896 17.590375
2006-04-10 11:44:25 51°16.601 2°36.783 -999 3.568853 34.351862 17.624084
2006-04-10 11:45:25 51°16.608 2°36.783 -999 3.569785 34.358225 17.725212
2006-04-10 11:46:25 51°16.617 2°36.789 -999 3.570821 34.373833 17.792631
2006-04-10 11:47:25 51°16.622 2°36.802 -999 3.57051 34.367794 17.86005
2006-04-10 11:48:25 51°16.626 2°36.818 -999 3.570303 34.36648 17.893759
2006-04-10 11:49:25 51°16.628 2°36.833 -999 3.570614 34.370711 18.062306
2006-04-10 11:50:25 51°16.61 2°36.764 -999 3.570199 34.368084 18.197144
2006-04-10 11:51:25 51°16.496 2°36.822 -999 3.570614 34.373424 17.927469
2006-04-10 11:52:25 51°16.315 2°36.946 -999 3.572271 34.386643 17.826341
2006-04-10 11:53:25 51°16.122 2°37.097 -999 3.572685 34.416433 17.927469
2006-04-10 11:54:25 51°15.929 2°37.253 -999 3.574342 34.447795 17.893759
2006-04-10 11:55:25 51°15.734 2°37.411 -999 3.577139 34.49504 18.129725
2006-04-10 11:56:25 51°15.541 2°37.567 -999 3.576414 34.480901 18.129725
2006-04-10 11:57:25 51°15.345 2°37.727 -999 3.57952 34.516043 17.994888
2006-04-10 11:58:25 51°15.148 2°37.884 -999 3.582316 34.541488 17.893759
2006-04-10 11:59:25 51°14.951 2°38.043 -999 3.587184 34.581859 17.826341
2006-04-10 12:00:25 51°14.759 2°38.217 -999 3.590394 34.617207 17.758922
2006-04-10 12:01:25 51°14.566 2°38.382 -999 3.589773 34.618749 17.792631
2006-04-10 12:02:25 51°14.376 2°38.557 -999 3.588841 34.60419 17.826341
2006-04-10 12:03:25 51°14.186 2°38.723 -999 3.589462 34.567145 17.826341
2006-04-10 12:04:25 51°13.983 2°38.84 -999 3.5906 34.536648 18.163435
2006-04-10 12:05:25 51°13.768 2°38.841 -999 3.591014 34.459609 18.264563
2006-04-10 12:06:25 51°13.57 2°38.71 -999 3.59412 34.416133 18.264563
2006-04-10 12:07:25 51°13.372 2°38.576 -999 3.594326 34.396761 18.264563
2006-04-10 12:08:25 51°13.171 2°38.461 -999 3.595569 34.419884 18.298272
2006-04-10 12:09:25 51°12.969 2°38.351 -999 3.597848 34.463063 18.230853
2006-04-10 12:10:25 51°12.772 2°38.222 -999 3.597952 34.49393 18.163435
2006-04-10 12:11:25 51°12.578 2°38.09 -999 3.595467 34.488179 18.062306
2006-04-10 12:12:25 51°12.383 2°37.958 -999 3.596917 34.524449 17.994888
2006-04-10 12:13:25 51°12.189 2°37.823 -999 3.597538 34.555537 18.062306
2006-04-10 12:14:25 51°11.992 2°37.692 -999 3.596089 34.55001 18.062306
2006-04-10 12:15:25 51°11.794 2°37.569 -999 3.598056 34.572859 18.062306
2006-04-10 12:16:25 51°11.598 2°37.444 -999 3.597746 34.564096 18.096016
2006-04-10 12:17:25 51°11.403 2°37.321 -999 3.597849 34.565204 18.129725
2006-04-10 12:18:25 51°11.208 2°37.186 -999 3.598574 34.572046 18.163435
2006-04-10 12:19:25 51°11.013 2°37.059 -999 3.597124 34.567429 18.230853
2006-04-10 12:20:25 51°10.817 2°36.933 -999 3.596814 34.574995 18.264563
2006-04-10 12:21:25 51°10.619 2°36.818 -999 3.594639 34.589872 18.298272
2006-04-10 12:22:25 51°10.423 2°36.909 -999 3.588426 34.553322 18.230853
2006-04-10 12:23:25 51°10.337 2°37.222 -999 3.589254 34.555834 18.264563
2006-04-10 12:24:24 51°10.381 2°37.578 -999 3.588322 34.51136 18.230853
2006-04-10 12:25:25 51°10.428 2°37.949 -999 3.589668 34.504011 18.230853
2006-04-10 12:26:25 51°10.466 2°38.315 -999 3.591014 34.506632 18.298272
2006-04-10 12:27:25 51°10.502 2°38.679 -999 3.591428 34.492957 18.43311
2006-04-10 12:28:25 51°10.543 2°39.042 -999 3.591324 34.454801 18.837623
2006-04-10 12:29:25 51°10.596 2°39.399 -999 3.590806 34.425826 18.97246
2006-04-10 12:30:25 51°10.66 2°39.755 -999 3.591531 34.418242 18.938751
2006-04-10 12:31:25 51°10.725 2°40.11 -999 3.592152 34.414963 18.97246
2006-04-10 12:32:25 51°10.789 2°40.466 -999 3.593705 34.420717 18.97246
2006-04-10 12:33:25 51°10.851 2°40.823 -999 3.594327 34.412942 18.97246
2006-04-10 12:34:25 51°10.918 2°41.178 -999 3.595466 34.412486 18.938751
2006-04-10 12:35:25 51°10.986 2°41.531 -999 3.598573 34.435677 19.039879
2006-04-10 12:36:25 51°11.035 2°41.799 -999 3.597122 34.399578 19.141007
2006-04-10 12:37:25 51°11.064 2°41.967 -999 3.597951 34.394031 19.141007
2006-04-10 12:38:25 51°11.078 2°42.063 -999 3.597744 34.384653 19.242136
2006-04-10 12:39:25 51°11.074 2°42.08 -999 3.597951 34.382372 19.478101
2006-04-10 12:40:24 51°11.066 2°42.091 -999 3.597536 34.37976 19.714067
2006-04-10 12:41:25 51°11.059 2°42.107 -999 3.598365 34.386776 19.680358
2006-04-10 12:42:25 51°11.053 2°42.125 -999 3.598261 34.376711 19.343264
2006-04-10 12:43:25 51°11.046 2°42.145 -999 3.598986 34.376351 19.309554
2006-04-10 12:44:25 51°11.038 2°42.181 -999 3.5994 34.377169 19.208426
2006-04-10 12:45:25 51°11.043 2°42.36 -999 3.599918 34.375506 19.309554
2006-04-10 12:46:25 51°11.09 2°42.643 -999 3.598779 34.365193 19.208426
2006-04-10 12:47:24 51°11.15 2°42.978 -999 3.598572 34.359412 19.141007
2006-04-10 12:48:25 51°11.209 2°43.333 -999 3.598572 34.358517 19.242136
2006-04-10 12:49:25 51°11.262 2°43.683 -999 3.597329 34.330112 19.376973
2006-04-10 12:50:25 51°11.33 2°44.026 -999 3.596707 34.319047 19.747777
2006-04-10 12:51:25 51°11.401 2°44.369 -999 3.596189 34.299263 19.950033
2006-04-10 12:52:25 51°11.472 2°44.714 -999 3.595153 34.274005 20.185999
2006-04-10 12:53:25 51°11.541 2°45.057 -999 3.595671 34.25099 20.11858
2006-04-10 12:54:24 51°11.609 2°45.398 -999 3.595567 34.238327 20.084871
2006-04-10 12:55:25 51°11.677 2°45.75 -999 3.594117 34.211415 19.950033
2006-04-10 12:56:25 51°11.747 2°46.095 -999 3.596292 34.214013 19.680358
2006-04-10 12:57:25 51°11.82 2°46.437 -999 3.590388 34.132945 19.646648
2006-04-10 12:58:25 51°11.905 2°46.772 -999 3.585417 34.057421 19.376973
2006-04-10 12:59:25 51°11.988 2°47.111 -999 3.588938 34.052274 19.275845
2006-04-10 13:00:25 51°12.073 2°47.446 -999 3.585417 34.010716 19.242136
2006-04-10 13:01:25 51°12.173 2°47.766 -999 3.580756 33.92732 19.376973
2006-04-10 13:02:25 51°12.28 2°48.077 -999 3.575267 33.888756 20.11858
2006-04-10 13:03:25 51°12.386 2°48.391 -999 3.56108 33.748849 20.523093
2006-04-10 13:04:25 51°12.486 2°48.711 -999 3.562012 33.743833 19.882614
2006-04-10 13:05:25 51°12.574 2°49.041 -999 3.556731 33.687338 19.781486
2006-04-10 13:06:25 51°12.663 2°49.368 -999 3.542233 33.533854 20.152289
2006-04-10 13:07:25 51°12.748 2°49.696 -999 3.537056 33.473317 20.017452
2006-04-10 13:08:25 51°12.846 2°50.017 -999 3.5296 33.400083 20.219708
2006-04-10 13:09:25 51°12.964 2°50.322 -999 3.525354 33.345956 20.017452
2006-04-10 13:10:25 51°13.079 2°50.625 -999 3.518417 33.286798 20.253418
2006-04-10 13:11:25 51°13.194 2°50.93 -999 3.514068 33.242799 20.185999
2006-04-10 13:12:25 51°13.309 2°51.236 -999 3.508166 33.177336 20.185999
2006-04-10 13:13:25 51°13.426 2°51.54 -999 3.504956 33.134189 20.320836
2006-04-10 13:14:25 51°13.542 2°51.847 -999 3.500814 33.094111 20.489383
2006-04-10 13:15:25 51°13.66 2°52.153 -999 3.503195 33.091762 20.084871
2006-04-10 13:16:25 51°13.777 2°52.46 -999 3.501228 33.069408 20.219708
2006-04-10 13:17:25 51°13.896 2°52.766 -999 3.499778 33.045667 20.388255
2006-04-10 13:18:25 51°14.014 2°53.071 -999 3.493359 32.986849 20.826477
2006-04-10 13:19:25 51°14.13 2°53.377 -999 3.484144 32.904646 21.197281
2006-04-10 13:20:25 51°14.225 2°53.701 -999 3.476586 32.835549 21.096153
2006-04-10 13:21:25 51°14.305 2°54.032 -999 3.464783 32.718533 21.096153
2006-04-10 13:22:25 51°14.354 2°54.38 -999 3.453809 32.61612 21.433247
2006-04-10 13:23:25 51°14.383 2°54.73 -999 3.447286 32.535126 21.23099
2006-04-10 13:24:25 51°14.356 2°55.062 -999 3.387139 31.942889 21.80405
2006-04-10 13:25:25 51°14.255 2°55.27 -999 3.285499 30.962838 32.624768
2006-04-10 13:26:25 51°14.155 2°55.384 -999 3.286327 30.97068 29.658341
2006-04-10 13:27:25 51°14.057 2°55.46 -999 3.286741 30.970987 29.388665
2006-04-10 13:28:24 51°13.977 2°55.517 -999 3.286016 30.951388 29.388665
2006-04-10 13:29:24 51°13.902 2°55.574 -999 3.285705 30.94013 29.590922
2006-04-10 13:30:25 51°13.83 2°55.636 -999 3.285809 30.929191 29.961725
2006-04-10 13:31:25 51°13.766 2°55.702 -999 3.286533 30.925535 30.366238
2006-04-10 13:32:24 51°13.719 2°55.791 -999 3.287775 30.918476 30.80446
2006-04-10 13:33:25 51°13.678 2°55.879 -999 3.28943 30.917337 31.276392
2006-04-10 13:34:24 51°13.644 2°55.952 -999 3.291397 30.922628 31.714614
2006-04-10 13:35:24 51°13.618 2°56.02 -999 3.29357 30.928474 32.152836
2006-04-10 13:36:24 51°13.607 2°56.075 -999 3.295743 30.930326 32.52364
2006-04-10 13:37:25 51°13.604 2°56.091 -999 3.29802 30.930862 32.928153
2006-04-10 13:38:24 51°13.6 2°56.097 -999 3.300296 30.929011 33.265247